createdAt,value
2018-11-21T00:02:03.658Z,22.35
2018-11-21T00:04:32.547Z,23.92
2018-11-21T00:07:01.641Z,24.80
2018-11-21T00:09:30.799Z,23.30
2018-11-21T00:11:59.703Z,23.25
2018-11-21T00:14:28.617Z,24.32
2018-11-21T00:16:57.614Z,23.52
2018-11-21T00:19:26.553Z,23.67
2018-11-21T00:21:55.644Z,22.87
2018-11-21T00:24:24.798Z,23.67
2018-11-21T00:26:53.942Z,21.45
2018-11-21T00:29:23.165Z,21.68
2018-11-21T00:31:52.250Z,21.57
2018-11-21T00:34:21.319Z,20.80
2018-11-21T00:36:50.333Z,22.93
2018-11-21T00:39:19.525Z,21.30
2018-11-21T00:41:48.685Z,23.32
2018-11-21T00:44:18.267Z,21.27
2018-11-21T00:46:47.504Z,22.35
2018-11-21T00:49:16.541Z,22.00
2018-11-21T00:51:45.586Z,23.30
2018-11-21T00:54:14.475Z,22.48
2018-11-21T00:56:43.505Z,22.42
2018-11-21T00:59:12.872Z,24.45
2018-11-21T01:01:42.235Z,19.82
2018-11-21T01:04:11.223Z,22.75
2018-11-21T01:06:40.200Z,21.57
2018-11-21T01:09:09.145Z,23.90
2018-11-21T01:11:38.450Z,22.30
2018-11-21T01:14:07.384Z,22.60
2018-11-21T01:16:36.276Z,23.52
2018-11-21T01:19:05.422Z,22.32
2018-11-21T01:21:35.027Z,22.13
2018-11-21T01:24:04.224Z,22.58
2018-11-21T01:26:33.288Z,22.87
2018-11-21T01:29:02.588Z,22.30
2018-11-21T01:31:32.946Z,23.55
2018-11-21T01:34:02.209Z,23.12
2018-11-21T01:36:31.150Z,22.25
2018-11-21T01:39:00.144Z,22.15
2018-11-21T01:41:29.233Z,23.07
2018-11-21T01:43:58.688Z,23.12
2018-11-21T01:46:28.600Z,22.70
2018-11-21T01:48:57.898Z,24.40
2018-11-21T01:51:27.304Z,21.80
2018-11-21T01:53:57.665Z,21.73
2018-11-21T01:56:27.382Z,23.83
2018-11-21T01:58:56.938Z,23.12
2018-11-21T02:01:26.193Z,23.77
2018-11-21T02:03:55.745Z,23.00
2018-11-21T02:06:25.144Z,19.95
2018-11-21T02:08:54.446Z,22.07
2018-11-21T02:11:23.180Z,22.37
2018-11-21T02:13:52.533Z,22.17
2018-11-21T02:16:22.138Z,22.52
2018-11-21T02:18:51.542Z,24.25
2018-11-21T02:21:20.838Z,22.35
2018-11-21T02:23:50.345Z,25.05
2018-11-21T02:26:19.734Z,22.93
2018-11-21T02:28:49.357Z,24.30
2018-11-21T02:31:18.542Z,23.15
2018-11-21T02:33:48.057Z,22.30
2018-11-21T02:36:16.989Z,23.57
2018-11-21T02:38:46.289Z,24.85
2018-11-21T02:41:15.386Z,22.40
2018-11-21T02:43:44.614Z,23.45
2018-11-21T02:46:13.833Z,23.50
2018-11-21T02:48:43.239Z,22.55
2018-11-21T02:51:12.141Z,21.65
2018-11-21T02:53:41.442Z,23.02
2018-11-21T02:56:11.400Z,24.30
2018-11-21T02:58:40.598Z,24.35
2018-11-21T03:01:09.787Z,22.35
2018-11-21T03:03:39.259Z,25.40
2018-11-21T03:06:08.580Z,23.75
2018-11-21T03:08:37.770Z,24.98
2018-11-21T03:11:06.898Z,23.70
2018-11-21T03:13:36.044Z,24.10
2018-11-21T03:16:14.074Z,25.17
2018-11-21T03:18:43.703Z,25.45
2018-11-21T03:21:12.805Z,24.40
2018-11-21T03:23:42.008Z,24.23
2018-11-21T03:26:10.999Z,25.15
2018-11-21T03:28:40.203Z,23.32
2018-11-21T03:31:09.624Z,24.30
2018-11-21T03:33:38.701Z,23.85
2018-11-21T03:36:07.788Z,24.05
2018-11-21T03:38:36.855Z,24.82
2018-11-21T03:41:06.145Z,24.27
2018-11-21T03:43:35.489Z,23.30
2018-11-21T03:46:04.700Z,23.38
2018-11-21T03:48:33.770Z,24.00
2018-11-21T03:51:03.135Z,23.95
2018-11-21T03:53:32.469Z,24.85
2018-11-21T03:56:01.690Z,24.32
2018-11-21T03:58:31.241Z,23.25
2018-11-21T04:01:00.301Z,23.47
2018-11-21T04:03:29.542Z,24.63
2018-11-21T04:05:58.625Z,24.52
2018-11-21T04:08:27.774Z,23.35
2018-11-21T04:10:56.692Z,24.37
2018-11-21T04:13:25.743Z,23.07
2018-11-21T04:15:55.117Z,22.15
2018-11-21T04:18:24.159Z,23.35
2018-11-21T04:20:53.205Z,24.65
2018-11-21T04:23:22.112Z,24.27
2018-11-21T04:25:51.222Z,24.23
2018-11-21T04:28:20.294Z,25.30
2018-11-21T04:30:49.215Z,22.48
2018-11-21T04:33:18.450Z,24.25
2018-11-21T04:35:47.448Z,24.75
2018-11-21T04:38:16.494Z,23.07
2018-11-21T04:40:45.494Z,24.90
2018-11-21T04:43:14.595Z,24.05
2018-11-21T04:45:43.450Z,25.57
2018-11-21T04:48:12.780Z,23.10
2018-11-21T04:50:42.181Z,21.70
2018-11-21T04:53:11.070Z,21.90
2018-11-21T04:55:40.147Z,25.60
2018-11-21T04:58:09.670Z,24.40
2018-11-21T05:00:39.134Z,24.50
2018-11-21T05:03:08.055Z,23.90
2018-11-21T05:05:37.036Z,22.98
2018-11-21T05:08:06.732Z,23.05
2018-11-21T05:10:36.016Z,24.10
2018-11-21T05:13:05.053Z,22.98
2018-11-21T05:15:34.742Z,22.90
2018-11-21T05:18:04.220Z,25.10
2018-11-21T05:20:33.061Z,22.15
2018-11-21T05:23:02.564Z,21.52
2018-11-21T05:25:31.490Z,21.60
2018-11-21T05:28:00.639Z,23.85
2018-11-21T05:30:29.924Z,22.00
2018-11-21T05:32:59.113Z,24.52
2018-11-21T05:35:28.364Z,22.73
2018-11-21T05:37:57.419Z,23.83
2018-11-21T05:40:26.430Z,24.70
2018-11-21T05:42:55.527Z,23.25
2018-11-21T05:45:24.800Z,22.32
2018-11-21T05:47:54.262Z,23.80
2018-11-21T05:50:23.062Z,24.70
2018-11-21T05:52:52.780Z,23.50
2018-11-21T05:55:21.853Z,23.57
2018-11-21T05:57:51.154Z,23.80
2018-11-21T06:00:20.770Z,23.35
2018-11-21T06:02:49.860Z,22.82
2018-11-21T06:05:18.903Z,24.05
2018-11-21T06:07:48.255Z,22.42
2018-11-21T06:10:18.367Z,23.25
2018-11-21T06:12:47.301Z,24.82
2018-11-21T06:15:16.719Z,24.32
2018-11-21T06:17:48.332Z,23.70
2018-11-21T06:20:16.246Z,23.05
2018-11-21T06:22:45.953Z,23.85
2018-11-21T06:25:15.355Z,20.85
2018-11-21T06:27:44.552Z,22.73
2018-11-21T06:30:14.439Z,23.95
2018-11-21T06:32:43.206Z,25.00
2018-11-21T06:35:12.393Z,24.47
2018-11-21T06:37:41.199Z,23.38
2018-11-21T06:40:12.276Z,24.65
2018-11-21T06:42:51.896Z,23.60
2018-11-21T06:45:21.780Z,22.50
2018-11-21T06:47:50.427Z,24.87
2018-11-21T06:50:19.205Z,24.20
2018-11-21T06:52:48.058Z,25.82
2018-11-21T06:55:16.732Z,23.32
2018-11-21T06:57:45.733Z,22.40
2018-11-21T07:00:14.651Z,24.72
2018-11-21T07:02:43.352Z,23.02
2018-11-21T07:05:12.305Z,24.82
2018-11-21T07:07:40.987Z,22.50
2018-11-21T07:10:16.499Z,23.00
2018-11-21T07:12:54.365Z,22.55
2018-11-21T07:15:23.051Z,21.45
2018-11-21T07:17:51.869Z,24.00
2018-11-21T07:20:20.698Z,22.77
2018-11-21T07:22:49.623Z,26.05
2018-11-21T07:25:20.091Z,24.37
2018-11-21T07:27:48.779Z,25.10
2018-11-21T07:30:18.128Z,23.80
2018-11-21T07:32:46.922Z,24.43
2018-11-21T07:35:18.076Z,23.40
2018-11-21T07:37:45.418Z,27.37
2018-11-21T07:40:14.882Z,26.60
2018-11-21T07:42:43.685Z,25.85
2018-11-21T07:45:13.833Z,28.60
2018-11-21T07:47:43.202Z,25.10
2018-11-21T07:50:17.077Z,23.80
2018-11-21T07:52:45.842Z,26.20
2018-11-21T07:55:14.886Z,23.47
2018-11-21T07:57:51.390Z,22.42
2018-11-21T08:00:50.793Z,21.33
2018-11-21T08:03:20.098Z,21.90
2018-11-21T08:06:06.865Z,22.45
2018-11-21T08:08:46.685Z,21.05
2018-11-21T08:11:30.621Z,21.85
2018-11-21T08:14:42.622Z,19.67
2018-11-21T08:17:30.751Z,20.02
2018-11-21T08:20:30.679Z,17.25
2018-11-21T08:23:10.442Z,21.42
2018-11-21T08:25:48.121Z,21.02
2018-11-21T08:28:35.279Z,22.45
2018-11-21T08:31:04.134Z,20.60
2018-11-21T08:33:34.016Z,22.82
2018-11-21T08:36:01.707Z,22.50
2018-11-21T08:38:30.548Z,21.40
2018-11-21T08:40:59.462Z,21.27
2018-11-21T08:43:28.255Z,21.52
2018-11-21T08:45:57.385Z,21.50
2018-11-21T08:48:26.309Z,23.15
2018-11-21T08:50:55.566Z,22.48
2018-11-21T08:53:24.294Z,21.95
2018-11-21T08:55:53.302Z,19.92
2018-11-21T08:58:22.201Z,20.43
2018-11-21T09:00:51.118Z,21.55
2018-11-21T09:03:19.971Z,20.40
2018-11-21T09:05:48.862Z,21.50
2018-11-21T09:08:18.053Z,21.62
2018-11-21T09:10:46.819Z,22.07
2018-11-21T09:13:15.528Z,21.17
2018-11-21T09:15:44.405Z,20.20
2018-11-21T09:18:13.489Z,19.95
2018-11-21T09:20:42.176Z,20.90
2018-11-21T09:23:11.102Z,20.27
2018-11-21T09:25:39.740Z,20.17
2018-11-21T09:28:08.452Z,17.12
2018-11-21T09:30:37.197Z,19.73
2018-11-21T09:33:05.995Z,20.70
2018-11-21T09:35:35.179Z,20.60
2018-11-21T09:38:03.895Z,19.87
2018-11-21T09:40:32.574Z,21.12
2018-11-21T09:43:01.256Z,20.75
2018-11-21T09:45:30.004Z,20.85
2018-11-21T09:47:58.796Z,20.27
2018-11-21T09:50:28.940Z,20.00
2018-11-21T09:52:57.618Z,21.20
2018-11-21T09:55:26.298Z,19.00
2018-11-21T09:57:55.556Z,21.15
2018-11-21T10:01:00.772Z,21.20
2018-11-21T10:03:31.012Z,21.62
2018-11-21T10:06:20.518Z,20.70
2018-11-21T10:08:50.880Z,16.27
2018-11-21T10:11:20.298Z,21.82
2018-11-21T10:13:49.334Z,20.10
2018-11-21T10:16:18.047Z,19.27
2018-11-21T10:18:48.353Z,19.25
2018-11-21T10:21:19.251Z,21.12
2018-11-21T10:23:47.993Z,20.62
2018-11-21T10:26:16.816Z,20.50
2018-11-21T10:28:46.573Z,20.77
2018-11-21T10:31:15.475Z,19.50
2018-11-21T10:33:44.330Z,20.85
2018-11-21T10:36:13.316Z,19.57
2018-11-21T10:38:42.114Z,20.90
2018-11-21T10:41:10.915Z,18.25
2018-11-21T10:43:39.738Z,18.85
2018-11-21T10:46:08.635Z,19.35
2018-11-21T10:48:37.492Z,20.48
2018-11-21T10:51:07.212Z,19.85
2018-11-21T10:53:35.928Z,22.15
2018-11-21T10:56:04.932Z,19.57
2018-11-21T10:58:33.645Z,20.55
2018-11-21T11:01:14.396Z,20.60
2018-11-21T11:03:49.339Z,19.37
2018-11-21T11:06:55.551Z,18.80
2018-11-21T11:09:46.490Z,19.42
2018-11-21T11:12:33.350Z,20.52
2018-11-21T11:15:20.392Z,19.37
2018-11-21T11:18:07.189Z,18.55
2018-11-21T11:21:07.555Z,18.32
2018-11-21T11:23:45.405Z,19.00
2018-11-21T11:26:45.392Z,21.20
2018-11-21T11:29:31.674Z,20.00
2018-11-21T11:32:18.403Z,20.97
2018-11-21T11:35:24.591Z,16.85
2018-11-21T11:38:12.656Z,18.15
2018-11-21T11:41:00.643Z,18.82
2018-11-21T11:43:47.697Z,17.65
2018-11-21T11:46:33.964Z,19.20
2018-11-21T11:49:27.527Z,19.92
2018-11-21T11:52:33.166Z,18.67
2018-11-21T11:55:23.697Z,20.08
2018-11-21T11:58:02.800Z,20.23
2018-11-21T12:00:39.729Z,18.50
2018-11-21T12:03:26.087Z,20.82
2018-11-21T12:06:13.847Z,19.17
2018-11-21T12:08:59.394Z,19.52
2018-11-21T12:12:04.980Z,19.07
2018-11-21T12:15:02.030Z,19.30
2018-11-21T12:18:08.396Z,19.52
2018-11-21T12:20:56.272Z,21.10
2018-11-21T12:23:50.150Z,20.57
2018-11-21T12:26:38.510Z,19.40
2018-11-21T12:29:26.363Z,17.20
2018-11-21T12:32:17.170Z,20.12
2018-11-21T12:35:03.766Z,20.23
2018-11-21T12:37:49.970Z,17.70
2018-11-21T12:40:36.284Z,21.20
2018-11-21T12:43:22.726Z,19.30
2018-11-21T12:46:08.985Z,21.82
2018-11-21T12:48:50.268Z,16.32
2018-11-21T12:51:43.905Z,19.40
2018-11-21T12:54:34.961Z,19.75
2018-11-21T12:57:21.713Z,19.25
2018-11-21T13:00:07.785Z,20.15
2018-11-21T13:02:45.487Z,19.32
2018-11-21T13:05:48.517Z,19.67
2018-11-21T13:08:53.916Z,20.15
2018-11-21T13:11:40.441Z,20.20
2018-11-21T13:14:30.945Z,21.37
2018-11-21T13:17:27.822Z,21.02
2018-11-21T13:20:14.268Z,21.45
2018-11-21T13:23:01.445Z,21.82
2018-11-21T13:25:42.111Z,22.82
2018-11-21T13:28:37.951Z,20.65
2018-11-21T13:31:24.758Z,20.68
2018-11-21T13:34:24.825Z,19.85
2018-11-21T13:40:57.225Z,19.70
2018-11-21T13:43:46.719Z,19.65
2018-11-21T13:46:31.664Z,20.45
2018-11-21T13:49:25.662Z,18.90
2018-11-21T13:52:12.595Z,19.67
2018-11-21T13:54:49.914Z,17.95
2018-11-21T13:57:20.382Z,18.12
2018-11-21T13:59:49.082Z,18.23
2018-11-21T14:02:18.102Z,17.27
2018-11-21T14:04:46.826Z,19.55
2018-11-21T14:07:15.614Z,18.62
2018-11-21T14:09:44.409Z,17.95
2018-11-21T14:12:13.081Z,19.00
2018-11-21T14:14:42.111Z,16.95
2018-11-21T14:17:10.922Z,16.90
2018-11-21T14:19:39.757Z,19.85
2018-11-21T14:22:08.553Z,18.02
2018-11-21T14:24:37.424Z,15.40
2018-11-21T14:27:06.221Z,18.82
2018-11-21T14:29:35.155Z,18.92
2018-11-21T14:32:03.945Z,17.30
2018-11-21T14:34:32.672Z,17.62
2018-11-21T14:37:01.372Z,18.55
2018-11-21T14:39:30.104Z,17.17
2018-11-21T14:41:58.923Z,18.87
2018-11-21T14:44:27.755Z,18.87
2018-11-21T14:46:57.513Z,14.33
2018-11-21T14:49:26.440Z,18.05
2018-11-21T14:51:55.118Z,18.67
2018-11-21T14:54:23.986Z,17.40
2018-11-21T14:56:53.039Z,18.90
2018-11-21T15:00:02.019Z,18.12
2018-11-21T15:02:30.957Z,18.25
2018-11-21T15:04:59.759Z,19.05
2018-11-21T15:07:28.550Z,16.87
2018-11-21T15:09:57.343Z,19.40
2018-11-21T15:12:26.062Z,18.57
2018-11-21T15:14:54.818Z,20.48
2018-11-21T15:17:23.743Z,19.30
2018-11-21T15:19:52.798Z,19.70
2018-11-21T15:22:21.564Z,19.55
2018-11-21T15:24:50.070Z,19.32
2018-11-21T15:27:18.956Z,18.73
2018-11-21T15:29:47.739Z,17.30
2018-11-21T15:32:16.474Z,19.57
2018-11-21T15:34:45.575Z,18.62
2018-11-21T15:37:14.431Z,19.20
2018-11-21T15:39:43.184Z,17.05
2018-11-21T15:42:12.025Z,16.67
2018-11-21T15:44:40.775Z,17.62
2018-11-21T15:47:09.515Z,16.35
2018-11-21T15:49:38.198Z,18.65
2018-11-21T15:52:07.074Z,18.52
2018-11-21T15:54:36.027Z,18.35
2018-11-21T15:57:04.673Z,17.77
2018-11-21T15:59:33.475Z,17.62
2018-11-21T16:02:02.164Z,17.48
2018-11-21T16:04:30.934Z,18.10
2018-11-21T16:06:59.886Z,18.60
2018-11-21T16:09:28.655Z,18.80
2018-11-21T16:11:57.467Z,17.90
2018-11-21T16:14:26.329Z,17.30
2018-11-21T16:16:55.074Z,17.77
2018-11-21T16:19:23.858Z,18.15
2018-11-21T16:21:52.893Z,17.42
2018-11-21T16:24:21.699Z,17.52
2018-11-21T16:26:50.504Z,17.73
2018-11-21T16:29:19.350Z,16.27
2018-11-21T16:31:48.028Z,17.40
2018-11-21T16:34:16.832Z,17.30
2018-11-21T16:37:04.315Z,17.52
2018-11-21T16:39:33.244Z,16.62
2018-11-21T16:42:02.623Z,16.02
2018-11-21T16:44:31.781Z,16.67
2018-11-21T16:47:00.814Z,17.42
2018-11-21T16:49:29.934Z,18.92
2018-11-21T16:51:58.657Z,16.93
2018-11-21T16:54:47.374Z,18.23
2018-11-21T16:57:16.771Z,17.20
2018-11-21T16:59:45.693Z,18.05
2018-11-21T17:02:29.974Z,18.12
2018-11-21T17:04:59.014Z,16.87
2018-11-21T17:07:27.737Z,17.82
2018-11-21T17:09:56.894Z,18.12
2018-11-21T17:12:25.782Z,18.35
2018-11-21T17:14:55.136Z,18.02
2018-11-21T17:17:23.989Z,17.85
2018-11-21T17:19:52.829Z,18.92
2018-11-21T17:22:21.838Z,18.87
2018-11-21T17:24:50.732Z,20.75
2018-11-21T17:27:19.815Z,19.52
2018-11-21T17:29:53.852Z,21.12
2018-11-21T17:32:17.632Z,23.20
2018-11-21T17:34:47.145Z,22.00
2018-11-21T17:37:16.082Z,22.93
2018-11-21T17:39:44.997Z,23.18
2018-11-21T17:42:14.300Z,23.90
2018-11-21T17:44:43.096Z,25.40
2018-11-21T17:47:12.349Z,25.62
2018-11-21T17:49:41.799Z,27.00
2018-11-21T17:52:11.181Z,26.27
2018-11-21T17:54:40.431Z,27.27
2018-11-21T17:57:09.624Z,29.42
2018-11-21T17:59:38.782Z,28.20
2018-11-21T18:02:08.297Z,29.50
2018-11-21T18:05:08.260Z,29.48
2018-11-21T18:07:32.146Z,28.50
2018-11-21T18:10:01.375Z,28.05
2018-11-21T18:12:30.265Z,28.45
2018-11-21T18:14:59.548Z,31.93
2018-11-21T18:17:28.445Z,27.85
2018-11-21T18:19:58.105Z,30.05
2018-11-21T18:22:27.259Z,28.07
2018-11-21T18:24:56.177Z,30.92
2018-11-21T18:27:26.363Z,29.63
2018-11-21T18:29:55.704Z,30.68
2018-11-21T18:32:25.063Z,28.80
2018-11-21T18:34:54.338Z,29.32
2018-11-21T18:37:23.504Z,29.15
2018-11-21T18:39:52.556Z,28.62
2018-11-21T18:42:21.700Z,28.05
2018-11-21T18:44:50.548Z,29.25
2018-11-21T18:47:19.658Z,28.90
2018-11-21T18:49:48.727Z,30.55
2018-11-21T18:52:18.211Z,29.90
2018-11-21T18:54:47.488Z,30.30
2018-11-21T18:57:39.153Z,48.25
2018-11-21T19:00:12.336Z,41.73
2018-11-21T19:02:41.504Z,34.98
2018-11-21T19:05:10.841Z,29.98
2018-11-21T19:07:44.756Z,30.17
2018-11-21T19:10:13.433Z,31.10
2018-11-21T19:12:43.287Z,29.10
2018-11-21T19:15:14.870Z,31.73
2018-11-21T19:17:44.279Z,29.35
2018-11-21T19:20:16.752Z,28.60
2018-11-21T19:22:45.844Z,29.27
2018-11-21T19:25:15.457Z,28.42
2018-11-21T19:27:45.372Z,28.50
2018-11-21T19:30:16.769Z,27.77
2018-11-21T19:32:46.432Z,29.80
2018-11-21T19:35:16.041Z,29.18
2018-11-21T19:37:45.342Z,31.90
2018-11-21T19:40:16.064Z,30.82
2018-11-21T19:42:45.685Z,30.45
2018-11-21T19:45:16.830Z,30.60
2018-11-21T19:47:46.644Z,29.90
2018-11-21T19:50:17.255Z,29.20
2018-11-21T19:52:47.493Z,29.90
2018-11-21T19:55:18.642Z,29.72
2018-11-21T19:57:48.444Z,29.98
2018-11-21T20:00:20.151Z,30.02
2018-11-21T20:02:49.918Z,29.20
2018-11-21T20:05:19.175Z,29.52
2018-11-21T20:07:48.681Z,29.45
2018-11-21T20:10:19.286Z,29.32
2018-11-21T20:12:54.789Z,30.57
2018-11-21T20:15:25.442Z,32.33
2018-11-21T20:17:56.551Z,28.85
2018-11-21T20:20:25.885Z,30.77
2018-11-21T20:22:55.292Z,32.23
2018-11-21T20:25:26.064Z,34.48
2018-11-21T20:27:55.081Z,29.42
2018-11-21T20:30:25.714Z,33.35
2018-11-21T20:32:54.582Z,30.97
2018-11-21T20:35:23.874Z,29.67
2018-11-21T20:37:52.904Z,32.53
2018-11-21T20:40:29.479Z,32.00
2018-11-21T20:42:58.410Z,30.45
2018-11-21T20:45:28.834Z,32.45
2018-11-21T20:47:58.645Z,31.93
2018-11-21T20:50:27.371Z,32.50
2018-11-21T20:52:56.529Z,33.10
2018-11-21T20:55:27.476Z,31.90
2018-11-21T20:57:56.170Z,32.05
2018-11-21T21:00:26.890Z,34.18
2018-11-21T21:02:55.639Z,33.60
2018-11-21T21:05:25.640Z,34.50
2018-11-21T21:07:54.800Z,34.30
2018-11-21T21:10:25.234Z,35.63
2018-11-21T21:12:54.001Z,34.53
2018-11-21T21:15:22.813Z,34.30
2018-11-21T21:17:51.804Z,34.15
2018-11-21T21:20:22.022Z,32.83
2018-11-21T21:22:52.214Z,33.40
2018-11-21T21:25:22.640Z,31.27
2018-11-21T21:27:51.561Z,32.65
2018-11-21T21:30:24.857Z,33.33
2018-11-21T21:32:53.651Z,32.83
2018-11-21T21:35:23.381Z,33.70
2018-11-21T21:37:52.519Z,32.08
2018-11-21T21:40:21.800Z,33.65
2018-11-21T21:42:50.857Z,31.52
2018-11-21T21:45:21.783Z,33.33
2018-11-21T21:47:51.806Z,31.77
2018-11-21T21:50:22.803Z,33.40
2018-11-21T21:52:51.806Z,32.28
2018-11-21T21:55:22.063Z,34.18
2018-11-21T21:57:50.988Z,32.08
2018-11-21T22:00:21.435Z,33.20
2018-11-21T22:02:50.987Z,33.08
2018-11-21T22:05:20.239Z,33.13
2018-11-21T22:07:49.208Z,32.95
2018-11-21T22:10:19.274Z,31.50
2018-11-21T22:12:48.385Z,30.95
2018-11-21T22:15:27.514Z,33.58
2018-11-21T22:17:58.070Z,33.55
2018-11-21T22:20:27.246Z,33.75
2018-11-21T22:22:56.385Z,34.30
2018-11-21T22:25:25.547Z,35.30
2018-11-21T22:27:54.474Z,33.20
2018-11-21T22:30:23.836Z,31.40
2018-11-21T22:32:53.411Z,33.60
2018-11-21T22:35:25.010Z,36.28
2018-11-21T22:37:52.889Z,35.90
2018-11-21T22:40:22.293Z,33.53
2018-11-21T22:42:51.601Z,34.85
2018-11-21T22:45:21.580Z,34.60
2018-11-21T22:47:50.665Z,34.43
2018-11-21T22:50:20.958Z,34.45
2018-11-21T22:52:50.089Z,32.85
2018-11-21T22:55:19.284Z,34.63
2018-11-21T22:57:49.052Z,35.60
2018-11-21T23:00:20.893Z,33.83
2018-11-21T23:02:50.261Z,33.65
2018-11-21T23:05:19.198Z,32.85
2018-11-21T23:07:48.241Z,33.90
2018-11-21T23:10:18.105Z,32.45
2018-11-21T23:12:47.350Z,36.23
2018-11-21T23:15:25.669Z,32.93
2018-11-21T23:17:54.815Z,30.48
2018-11-21T23:20:23.651Z,32.48
2018-11-21T23:22:52.996Z,34.60
2018-11-21T23:25:22.280Z,31.48
2018-11-21T23:27:51.451Z,33.75
2018-11-21T23:30:20.744Z,33.70
2018-11-21T23:32:50.008Z,33.08
2018-11-21T23:35:20.365Z,33.18
2018-11-21T23:37:49.702Z,32.53
2018-11-21T23:40:18.704Z,33.30
2018-11-21T23:42:49.559Z,30.50
2018-11-21T23:45:18.974Z,32.83
2018-11-21T23:47:48.239Z,31.12
2018-11-21T23:50:18.207Z,32.50
2018-11-21T23:52:47.082Z,33.08
2018-11-21T23:55:18.124Z,31.77
2018-11-21T23:57:47.194Z,33.70
